createdAt,value
2018-02-24T00:01:43.128Z,36.78
2018-02-24T00:04:10.082Z,32.33
2018-02-24T00:06:37.072Z,31.12
2018-02-24T00:09:03.392Z,28.05
2018-02-24T00:11:29.600Z,38.60
2018-02-24T00:13:55.867Z,33.80
2018-02-24T00:16:22.089Z,29.65
2018-02-24T00:18:48.287Z,31.50
2018-02-24T00:21:14.477Z,32.35
2018-02-24T00:23:40.674Z,30.20
2018-02-24T00:26:06.876Z,29.92
2018-02-24T00:28:33.105Z,28.02
2018-02-24T00:30:59.286Z,35.63
2018-02-24T00:33:25.502Z,35.25
2018-02-24T00:35:51.696Z,33.17
2018-02-24T00:38:17.962Z,34.50
2018-02-24T00:40:44.202Z,31.83
2018-02-24T00:43:10.369Z,32.58
2018-02-24T00:45:36.598Z,32.15
2018-02-24T00:48:03.643Z,33.55
2018-02-24T00:50:30.615Z,28.67
2018-02-24T00:52:56.839Z,33.55
2018-02-24T00:55:23.060Z,33.90
2018-02-24T00:57:49.336Z,32.08
2018-02-24T01:00:15.604Z,25.42
2018-02-24T01:02:57.440Z,33.25
2018-02-24T01:05:23.619Z,29.83
2018-02-24T01:07:50.608Z,33.17
2018-02-24T01:10:16.832Z,28.30
2018-02-24T01:12:43.062Z,30.20
2018-02-24T01:15:09.235Z,34.13
2018-02-24T01:17:35.444Z,29.15
2018-02-24T01:20:01.643Z,28.08
2018-02-24T01:22:27.861Z,29.30
2018-02-24T01:24:54.095Z,30.90
2018-02-24T01:27:20.372Z,34.53
2018-02-24T01:29:46.572Z,33.63
2018-02-24T01:32:12.830Z,33.30
2018-02-24T01:34:39.031Z,29.35
2018-02-24T01:37:05.240Z,29.92
2018-02-24T01:39:31.429Z,29.52
2018-02-24T01:41:57.629Z,29.70
2018-02-24T01:44:23.814Z,32.10
2018-02-24T01:46:50.071Z,39.65
2018-02-24T01:49:16.261Z,32.10
2018-02-24T01:51:43.256Z,24.58
2018-02-24T01:54:09.431Z,33.75
2018-02-24T01:56:36.374Z,31.02
2018-02-24T01:59:03.328Z,30.37
2018-02-24T02:01:29.578Z,35.75
2018-02-24T02:03:55.763Z,29.90
2018-02-24T02:06:21.934Z,36.28
2018-02-24T02:08:48.155Z,31.92
2018-02-24T02:11:14.384Z,30.67
2018-02-24T02:13:40.619Z,28.67
2018-02-24T02:16:06.850Z,35.85
2018-02-24T02:18:33.034Z,30.05
2018-02-24T02:20:59.240Z,27.30
2018-02-24T02:23:25.441Z,35.42
2018-02-24T02:25:51.645Z,31.35
2018-02-24T02:28:18.541Z,32.13
2018-02-24T02:30:45.152Z,44.65
2018-02-24T02:33:11.359Z,29.80
2018-02-24T02:35:37.615Z,36.60
2018-02-24T02:38:03.798Z,25.60
2018-02-24T02:40:30.734Z,32.78
2018-02-24T02:42:56.910Z,35.65
2018-02-24T02:45:24.057Z,34.15
2018-02-24T02:47:50.275Z,40.17
2018-02-24T02:50:16.514Z,29.60
2018-02-24T02:52:42.718Z,32.22
2018-02-24T02:55:09.611Z,29.10
2018-02-24T02:57:35.813Z,31.87
2018-02-24T03:00:02.007Z,30.35
2018-02-24T03:02:28.302Z,25.37
2018-02-24T03:04:54.501Z,33.70
2018-02-24T03:07:20.683Z,27.02
2018-02-24T03:09:46.903Z,27.75
2018-02-24T03:12:13.104Z,27.37
2018-02-24T03:14:39.339Z,29.00
2018-02-24T03:17:05.499Z,27.00
2018-02-24T03:19:31.689Z,31.27
2018-02-24T03:21:57.837Z,29.45
2018-02-24T03:24:24.114Z,29.83
2018-02-24T03:26:51.001Z,31.00
2018-02-24T03:29:17.246Z,27.17
2018-02-24T03:31:43.461Z,27.33
2018-02-24T03:34:09.683Z,29.77
2018-02-24T03:36:35.893Z,28.05
2018-02-24T03:39:02.112Z,28.12
2018-02-24T03:41:28.323Z,28.10
2018-02-24T03:43:55.246Z,33.55
2018-02-24T03:46:21.409Z,25.73
2018-02-24T03:48:47.570Z,32.55
2018-02-24T03:51:13.791Z,29.12
2018-02-24T03:53:39.977Z,31.95
2018-02-24T03:56:06.934Z,29.90
2018-02-24T03:58:33.866Z,29.37
2018-02-24T04:01:00.783Z,26.95
2018-02-24T04:03:27.011Z,26.58
2018-02-24T04:05:53.227Z,23.90
2018-02-24T04:08:19.433Z,26.90
2018-02-24T04:10:45.640Z,33.97
2018-02-24T04:13:12.594Z,31.80
2018-02-24T04:15:38.802Z,32.78
2018-02-24T04:18:05.667Z,31.12
2018-02-24T04:20:31.912Z,30.05
2018-02-24T04:22:58.079Z,33.55
2018-02-24T04:25:24.271Z,30.98
2018-02-24T04:27:50.439Z,28.25
2018-02-24T04:30:16.621Z,34.05
2018-02-24T04:32:42.817Z,34.03
2018-02-24T04:35:09.755Z,33.55
2018-02-24T04:37:35.982Z,33.00
2018-02-24T04:40:02.909Z,30.42
2018-02-24T04:42:29.100Z,32.72
2018-02-24T04:44:55.293Z,35.88
2018-02-24T04:47:22.230Z,30.55
2018-02-24T04:49:48.422Z,32.40
2018-02-24T04:52:14.621Z,35.00
2018-02-24T04:54:40.823Z,32.55
2018-02-24T04:57:07.838Z,32.40
2018-02-24T04:59:34.072Z,26.52
2018-02-24T05:02:01.073Z,34.08
2018-02-24T05:04:27.279Z,29.27
2018-02-24T05:06:54.233Z,34.28
2018-02-24T05:09:21.188Z,31.20
2018-02-24T05:11:47.377Z,29.50
2018-02-24T05:14:13.660Z,36.35
2018-02-24T05:16:39.841Z,28.98
2018-02-24T05:19:06.062Z,38.60
2018-02-24T05:21:32.231Z,34.50
2018-02-24T05:23:58.395Z,28.20
2018-02-24T05:26:24.573Z,30.42
2018-02-24T05:28:51.517Z,29.37
2018-02-24T05:31:18.432Z,29.95
2018-02-24T05:33:44.740Z,31.40
2018-02-24T05:36:10.897Z,26.33
2018-02-24T05:38:37.070Z,27.98
2018-02-24T05:41:03.255Z,25.90
2018-02-24T05:43:29.409Z,30.20
2018-02-24T05:45:56.336Z,27.45
2018-02-24T05:48:22.494Z,31.60
2018-02-24T05:50:48.774Z,31.02
2018-02-24T05:53:14.963Z,29.20
2018-02-24T05:55:41.168Z,32.25
2018-02-24T05:58:08.978Z,31.75
2018-02-24T06:00:35.202Z,26.60
2018-02-24T06:03:01.412Z,30.88
2018-02-24T06:05:27.665Z,33.65
2018-02-24T06:07:53.860Z,25.85
2018-02-24T06:10:20.055Z,28.27
2018-02-24T06:12:46.242Z,38.55
2018-02-24T06:15:12.450Z,27.42
2018-02-24T06:17:38.682Z,27.92
2018-02-24T06:20:04.834Z,31.50
2018-02-24T06:22:31.787Z,29.20
2018-02-24T06:24:57.976Z,29.73
2018-02-24T06:27:24.211Z,37.22
2018-02-24T06:29:50.466Z,26.17
2018-02-24T06:32:16.726Z,30.65
2018-02-24T06:34:42.969Z,26.62
2018-02-24T06:37:09.922Z,27.30
2018-02-24T06:39:37.414Z,29.63
2018-02-24T06:42:03.593Z,25.52
2018-02-24T06:44:29.753Z,29.25
2018-02-24T06:46:55.961Z,27.15
2018-02-24T06:49:22.908Z,25.20
2018-02-24T06:51:49.839Z,28.02
2018-02-24T06:54:16.109Z,25.95
2018-02-24T06:56:42.325Z,24.15
2018-02-24T06:59:09.264Z,27.98
2018-02-24T07:01:36.233Z,23.00
2018-02-24T07:04:02.478Z,26.25
2018-02-24T07:06:28.729Z,29.77
2018-02-24T07:08:54.892Z,28.75
2018-02-24T07:11:21.793Z,23.65
2018-02-24T07:13:48.558Z,43.47
2018-02-24T07:16:14.761Z,24.17
2018-02-24T07:18:41.593Z,26.55
2018-02-24T07:21:07.771Z,27.55
2018-02-24T07:23:34.691Z,26.08
2018-02-24T07:26:00.995Z,30.23
2018-02-24T07:28:27.891Z,29.17
2018-02-24T07:30:54.188Z,29.80
2018-02-24T07:33:20.386Z,25.52
2018-02-24T07:35:46.599Z,29.33
2018-02-24T07:38:13.508Z,25.52
2018-02-24T07:40:39.786Z,26.12
2018-02-24T07:43:06.027Z,25.10
2018-02-24T07:45:32.285Z,26.83
2018-02-24T07:47:58.483Z,20.12
2018-02-24T07:50:24.695Z,24.85
2018-02-24T07:52:50.878Z,21.60
2018-02-24T07:55:17.064Z,24.67
2018-02-24T07:57:43.282Z,22.20
2018-02-24T08:00:09.514Z,17.67
2018-02-24T08:02:35.767Z,25.23
2018-02-24T08:05:01.954Z,18.77
2018-02-24T08:07:28.878Z,18.23
2018-02-24T08:09:55.121Z,17.60
2018-02-24T08:12:22.043Z,24.87
2018-02-24T08:14:48.242Z,25.47
2018-02-24T08:17:14.431Z,22.90
2018-02-24T08:19:41.416Z,20.90
2018-02-24T08:22:07.606Z,21.77
2018-02-24T08:24:34.623Z,19.63
2018-02-24T08:27:00.848Z,17.93
2018-02-24T08:29:27.057Z,16.40
2018-02-24T08:31:53.236Z,17.50
2018-02-24T08:34:20.200Z,17.20
2018-02-24T08:36:46.401Z,21.83
2018-02-24T08:39:13.354Z,20.03
2018-02-24T08:41:40.302Z,18.20
2018-02-24T08:44:07.308Z,19.03
2018-02-24T08:46:33.468Z,22.00
2018-02-24T08:49:01.327Z,18.80
2018-02-24T08:51:27.732Z,17.77
2018-02-24T08:53:53.937Z,18.90
2018-02-24T08:56:20.137Z,22.60
2018-02-24T08:58:46.401Z,25.87
2018-02-24T09:01:13.338Z,24.57
2018-02-24T09:03:39.541Z,22.17
2018-02-24T09:06:06.496Z,20.60
2018-02-24T09:08:33.467Z,19.60
2018-02-24T09:10:59.661Z,19.47
2018-02-24T09:13:26.571Z,22.23
2018-02-24T09:15:52.779Z,14.67
2018-02-24T09:18:19.058Z,16.73
2018-02-24T09:20:45.999Z,18.70
2018-02-24T09:23:12.270Z,17.63
2018-02-24T09:25:38.532Z,15.17
2018-02-24T09:28:04.713Z,18.50
2018-02-24T09:30:30.932Z,19.00
2018-02-24T09:32:57.960Z,16.53
2018-02-24T09:35:24.204Z,16.37
2018-02-24T09:37:51.146Z,18.73
2018-02-24T09:40:18.090Z,16.63
2018-02-24T09:42:44.661Z,14.00
2018-02-24T09:45:11.012Z,20.03
2018-02-24T09:47:37.259Z,18.00
2018-02-24T09:50:03.423Z,15.40
2018-02-24T09:52:30.372Z,15.37
2018-02-24T10:07:56.640Z,18.00
2018-02-24T10:10:22.837Z,16.50
2018-02-24T10:12:49.037Z,16.40
2018-02-24T10:15:15.965Z,16.67
2018-02-24T10:17:42.174Z,16.73
2018-02-24T10:20:08.349Z,16.83
2018-02-24T10:22:35.310Z,15.50
2018-02-24T10:25:01.597Z,15.47
2018-02-24T10:27:27.710Z,17.57
2018-02-24T10:29:53.977Z,18.50
2018-02-24T10:32:20.937Z,15.87
2018-02-24T10:34:47.158Z,16.17
2018-02-24T10:37:14.090Z,15.20
2018-02-24T10:39:40.320Z,20.50
2018-02-24T10:42:06.520Z,12.93
2018-02-24T10:44:32.703Z,19.70
2018-02-24T10:46:59.283Z,24.70
2018-02-24T10:49:25.482Z,15.13
2018-02-24T10:51:51.652Z,15.57
2018-02-24T10:54:18.262Z,20.00
2018-02-24T10:56:44.476Z,14.83
2018-02-24T10:59:10.761Z,16.93
2018-02-24T11:01:38.446Z,15.97
2018-02-24T11:04:05.379Z,15.77
2018-02-24T11:06:32.389Z,15.37
2018-02-24T11:08:58.619Z,13.27
2018-02-24T11:11:24.865Z,15.70
2018-02-24T11:13:51.037Z,13.43
2018-02-24T11:16:17.243Z,13.70
2018-02-24T11:18:44.187Z,12.50
2018-02-24T11:21:11.186Z,16.07
2018-02-24T11:23:37.396Z,14.00
2018-02-24T11:26:03.630Z,15.97
2018-02-24T11:28:29.843Z,16.57
2018-02-24T11:30:56.042Z,12.97
2018-02-24T11:33:23.063Z,11.50
2018-02-24T11:35:49.290Z,17.53
2018-02-24T11:38:15.894Z,14.73
2018-02-24T11:40:42.439Z,14.03
2018-02-24T11:43:08.690Z,19.83
2018-02-24T11:45:34.905Z,22.50
2018-02-24T11:48:01.112Z,14.30
2018-02-24T11:50:27.398Z,18.67
2018-02-24T11:52:54.360Z,17.00
2018-02-24T11:55:21.826Z,17.63
2018-02-24T11:57:48.774Z,12.20
2018-02-24T12:00:15.686Z,20.13
2018-02-24T12:02:42.269Z,16.03
2018-02-24T12:05:09.189Z,16.67
2018-02-24T12:07:35.469Z,14.83
2018-02-24T12:10:01.715Z,13.60
2018-02-24T12:12:27.921Z,12.57
2018-02-24T12:14:54.889Z,14.50
2018-02-24T12:17:21.488Z,16.07
2018-02-24T12:19:48.426Z,13.30
2018-02-24T12:22:15.009Z,15.93
2018-02-24T12:24:41.417Z,19.00
2018-02-24T12:27:08.416Z,21.13
2018-02-24T12:29:34.633Z,16.20
2018-02-24T12:32:00.853Z,14.27
2018-02-24T12:34:27.821Z,15.97
2018-02-24T12:36:54.025Z,13.87
2018-02-24T12:39:20.957Z,21.53
2018-02-24T12:41:47.635Z,14.00
2018-02-24T12:44:14.653Z,15.20
2018-02-24T12:46:41.272Z,13.07
2018-02-24T12:49:08.035Z,14.53
2018-02-24T12:51:34.292Z,12.00
2018-02-24T12:54:00.801Z,12.67
2018-02-24T12:56:28.458Z,11.30
2018-02-24T12:58:55.070Z,11.93
2018-02-24T13:01:21.283Z,19.40
2018-02-24T13:03:48.199Z,18.67
2018-02-24T13:06:14.378Z,13.67
2018-02-24T13:08:41.311Z,16.60
2018-02-24T13:11:08.268Z,14.70
2018-02-24T13:13:34.833Z,20.63
2018-02-24T13:16:01.037Z,14.77
2018-02-24T13:18:27.615Z,11.50
2018-02-24T13:20:54.111Z,13.03
2018-02-24T13:23:20.865Z,19.00
2018-02-24T13:25:47.539Z,13.63
2018-02-24T13:28:13.719Z,11.60
2018-02-24T13:30:39.972Z,13.37
2018-02-24T13:33:06.268Z,14.13
2018-02-24T13:35:33.645Z,15.93
2018-02-24T13:37:59.874Z,15.27
2018-02-24T13:40:26.465Z,13.00
2018-02-24T13:42:53.108Z,13.67
2018-02-24T13:45:20.165Z,15.77
2018-02-24T13:47:47.867Z,13.63
2018-02-24T13:50:14.472Z,16.17
2018-02-24T13:52:41.431Z,15.23
2018-02-24T13:55:09.208Z,16.73
2018-02-24T13:57:36.040Z,13.63
2018-02-24T14:00:02.793Z,15.97
2018-02-24T14:02:28.985Z,11.80
2018-02-24T14:04:55.567Z,13.20
2018-02-24T14:07:22.112Z,16.83
2018-02-24T14:09:48.303Z,12.53
2018-02-24T14:12:14.498Z,14.87
2018-02-24T14:14:42.249Z,13.73
2018-02-24T14:17:08.798Z,15.73
2018-02-24T14:19:35.010Z,13.67
2018-02-24T14:22:01.179Z,11.90
2018-02-24T14:24:29.045Z,11.10
2018-02-24T14:26:56.227Z,17.77
2018-02-24T14:29:22.418Z,16.93
2018-02-24T14:31:49.424Z,15.37
2018-02-24T14:34:15.626Z,13.03
2018-02-24T14:36:41.848Z,11.70
2018-02-24T14:39:08.121Z,18.90
2018-02-24T14:41:35.306Z,12.60
2018-02-24T14:44:02.250Z,13.50
2018-02-24T14:46:29.181Z,14.77
2018-02-24T14:48:55.389Z,14.13
2018-02-24T14:51:21.613Z,16.43
2018-02-24T14:53:47.836Z,13.93
2018-02-24T14:56:14.083Z,16.23
2018-02-24T14:58:40.317Z,16.77
2018-02-24T15:01:06.511Z,15.10
2018-02-24T15:03:32.744Z,14.13
2018-02-24T15:05:59.213Z,15.10
2018-02-24T15:08:25.496Z,14.07
2018-02-24T15:10:51.723Z,15.50
2018-02-24T15:13:17.931Z,11.80
2018-02-24T15:15:44.839Z,13.20
2018-02-24T15:18:11.894Z,13.47
2018-02-24T15:20:51.882Z,15.63
2018-02-24T15:23:18.166Z,10.47
2018-02-24T15:25:44.453Z,11.67
2018-02-24T15:28:10.658Z,12.60
2018-02-24T15:30:37.668Z,16.70
2018-02-24T15:33:04.693Z,12.03
2018-02-24T15:35:30.940Z,19.00
2018-02-24T15:37:57.269Z,15.45
2018-02-24T15:40:23.525Z,16.15
2018-02-24T15:42:50.513Z,15.15
2018-02-24T15:45:16.727Z,11.82
2018-02-24T15:47:42.903Z,15.02
2018-02-24T15:50:10.077Z,20.15
2018-02-24T15:52:36.736Z,13.55
2018-02-24T15:55:03.428Z,14.20
2018-02-24T15:57:30.041Z,16.08
2018-02-24T15:59:56.258Z,16.52
2018-02-24T16:02:22.907Z,12.82
2018-02-24T16:04:49.191Z,17.15
2018-02-24T16:07:15.396Z,13.25
2018-02-24T16:09:45.685Z,13.68
2018-02-24T16:12:12.053Z,23.20
2018-02-24T16:14:39.897Z,14.63
2018-02-24T16:17:06.151Z,16.23
2018-02-24T16:19:32.531Z,15.50
2018-02-24T16:21:58.793Z,14.40
2018-02-24T16:24:25.128Z,16.60
2018-02-24T16:26:52.494Z,14.55
2018-02-24T16:29:18.854Z,13.27
2018-02-24T16:31:45.510Z,14.68
2018-02-24T16:34:12.884Z,14.77
2018-02-24T16:36:39.992Z,21.83
2018-02-24T16:39:06.293Z,18.42
2018-02-24T16:41:32.526Z,14.23
2018-02-24T16:43:59.496Z,18.08
2018-02-24T16:46:25.794Z,13.25
2018-02-24T16:48:52.039Z,14.95
2018-02-24T16:51:18.533Z,18.98
2018-02-24T16:53:45.681Z,13.88
2018-02-24T16:56:13.353Z,14.18
2018-02-24T16:58:39.592Z,12.27
2018-02-24T17:01:06.186Z,12.80
2018-02-24T17:03:32.431Z,14.60
2018-02-24T17:05:59.413Z,11.50
2018-02-24T17:08:25.651Z,13.55
2018-02-24T17:10:51.941Z,14.90
2018-02-24T17:13:18.963Z,13.95
2018-02-24T17:15:45.143Z,11.52
2018-02-24T17:18:17.469Z,11.27
2018-02-24T17:20:43.681Z,10.43
2018-02-24T17:23:09.944Z,12.85
2018-02-24T17:25:36.883Z,15.30
2018-02-24T17:28:04.003Z,13.82
2018-02-24T17:30:30.285Z,11.93
2018-02-24T17:32:56.512Z,10.63
2018-02-24T17:35:22.732Z,16.52
2018-02-24T17:37:49.406Z,12.60
2018-02-24T17:40:15.626Z,18.58
2018-02-24T17:42:41.851Z,12.07
2018-02-24T17:45:08.060Z,11.55
2018-02-24T17:47:35.019Z,10.75
2018-02-24T17:50:01.239Z,11.55
2018-02-24T17:52:28.224Z,7.90
2018-02-24T17:54:54.438Z,10.02
2018-02-24T17:57:20.701Z,7.95
2018-02-24T17:59:46.933Z,8.23
2018-02-24T18:02:13.105Z,9.40
2018-02-24T18:04:39.343Z,9.02
2018-02-24T18:07:05.553Z,11.18
2018-02-24T18:09:32.503Z,6.40
2018-02-24T18:11:59.523Z,6.25
2018-02-24T18:14:25.726Z,8.55
2018-02-24T18:16:52.030Z,7.00
2018-02-24T18:19:18.233Z,6.20
2018-02-24T18:21:45.181Z,8.07
2018-02-24T18:24:12.122Z,6.15
2018-02-24T18:26:38.344Z,7.85
2018-02-24T18:29:05.339Z,5.68
2018-02-24T18:31:31.535Z,8.60
2018-02-24T18:33:58.461Z,5.75
2018-02-24T18:36:24.680Z,6.62
2018-02-24T18:38:50.958Z,6.60
2018-02-24T18:41:17.094Z,4.68
2018-02-24T18:43:43.349Z,4.78
2018-02-24T18:46:09.594Z,5.75
2018-02-24T18:48:35.842Z,7.18
2018-02-24T18:51:02.774Z,5.60
2018-02-24T18:53:29.068Z,6.95
2018-02-24T18:55:55.300Z,6.22
2018-02-24T18:58:21.540Z,4.65
2018-02-24T19:00:47.737Z,7.62
2018-02-24T19:03:13.975Z,6.47
2018-02-24T19:05:40.209Z,6.35
2018-02-24T19:08:06.436Z,5.78
2018-02-24T19:10:32.813Z,5.05
2018-02-24T19:12:59.079Z,3.80
2018-02-24T19:15:25.291Z,8.40
2018-02-24T19:17:53.064Z,6.03
2018-02-24T19:20:20.112Z,4.70
2018-02-24T19:22:47.074Z,3.50
2018-02-24T19:25:13.338Z,6.05
2018-02-24T19:27:39.644Z,3.40
2018-02-24T19:30:05.899Z,4.80
2018-02-24T19:32:32.168Z,2.85
2018-02-24T19:34:58.425Z,7.05
2018-02-24T19:37:24.585Z,5.80
2018-02-24T19:39:50.872Z,7.10
2018-02-24T19:42:17.088Z,6.60
2018-02-24T19:44:44.043Z,6.10
2018-02-24T19:47:10.991Z,5.00
2018-02-24T19:49:37.257Z,5.32
2018-02-24T19:52:03.593Z,4.10
2018-02-24T19:54:29.807Z,3.65
2018-02-24T19:56:56.631Z,7.28
2018-02-24T19:59:22.875Z,4.72
2018-02-24T20:01:49.110Z,4.75
2018-02-24T20:04:15.359Z,3.65
2018-02-24T20:06:41.596Z,3.25
2018-02-24T20:09:07.902Z,6.70
2018-02-24T20:11:34.147Z,5.43
2018-02-24T20:14:01.255Z,56.13
2018-02-24T20:16:27.491Z,52.20
2018-02-24T20:18:53.697Z,3.60
2018-02-24T20:21:20.670Z,2.97
2018-02-24T20:23:46.874Z,4.30
2018-02-24T20:26:13.818Z,3.10
2018-02-24T20:28:40.097Z,4.30
2018-02-24T20:31:06.332Z,3.33
2018-02-24T20:33:32.566Z,4.25
2018-02-24T20:35:58.784Z,4.95
2018-02-24T20:38:24.987Z,4.60
2018-02-24T20:40:51.218Z,6.35
2018-02-24T20:43:17.454Z,3.70
2018-02-24T20:45:44.631Z,3.50
2018-02-24T20:48:10.861Z,3.67
2018-02-24T20:50:37.081Z,6.32
2018-02-24T20:53:03.282Z,11.80
2018-02-24T20:55:30.346Z,4.37
2018-02-24T20:57:56.543Z,5.57
2018-02-24T21:00:23.490Z,7.28
2018-02-24T21:02:50.532Z,4.28
2018-02-24T21:05:17.506Z,7.18
2018-02-24T21:07:43.759Z,3.87
2018-02-24T21:10:10.050Z,3.33
2018-02-24T21:12:37.325Z,3.92
2018-02-24T21:15:03.624Z,4.68
2018-02-24T21:17:31.009Z,7.25
2018-02-24T21:29:42.432Z,4.78
2018-02-24T21:32:09.370Z,5.70
2018-02-24T21:34:36.343Z,5.45
2018-02-24T21:37:02.549Z,4.05
2018-02-24T21:39:29.554Z,7.68
2018-02-24T21:41:55.964Z,5.65
2018-02-24T21:44:22.230Z,4.18
2018-02-24T21:46:48.453Z,4.85
2018-02-24T21:49:14.718Z,6.60
2018-02-24T21:51:41.800Z,4.40
2018-02-24T21:54:08.055Z,5.90
2018-02-24T21:56:34.322Z,5.10
2018-02-24T21:59:01.380Z,5.55
2018-02-24T22:01:28.371Z,6.28
2018-02-24T22:03:54.610Z,3.87
2018-02-24T22:06:20.837Z,6.97
2018-02-24T22:08:47.112Z,5.03
2018-02-24T22:11:14.208Z,4.57
2018-02-24T22:13:40.486Z,4.87
2018-02-24T22:16:22.323Z,7.18
2018-02-24T22:18:48.776Z,6.80
2018-02-24T22:21:15.034Z,3.42
2018-02-24T22:23:41.339Z,6.07
2018-02-24T22:26:08.504Z,4.03
2018-02-24T22:28:34.799Z,5.40
2018-02-24T22:31:01.942Z,6.20
2018-02-24T22:33:28.323Z,6.43
2018-02-24T22:35:54.644Z,4.28
2018-02-24T22:38:20.829Z,5.15
2018-02-24T22:40:48.378Z,3.72
2018-02-24T22:43:15.255Z,7.03
2018-02-24T22:45:41.641Z,7.53
2018-02-24T22:48:14.558Z,6.53
2018-02-24T22:50:40.932Z,7.80
2018-02-24T22:53:07.280Z,4.43
2018-02-24T22:55:34.326Z,7.50
2018-02-24T22:58:00.970Z,9.45
2018-02-24T23:00:27.993Z,4.65
2018-02-24T23:02:54.255Z,4.90
2018-02-24T23:05:21.194Z,6.15
2018-02-24T23:07:48.166Z,7.15
2018-02-24T23:10:14.529Z,8.75
2018-02-24T23:12:40.759Z,6.45
2018-02-24T23:15:07.025Z,9.70
2018-02-24T23:17:33.250Z,13.32
2018-02-24T23:20:00.390Z,6.72
2018-02-24T23:22:26.644Z,6.57
2018-02-24T23:24:52.877Z,5.43
2018-02-24T23:27:19.932Z,5.15
2018-02-24T23:29:46.962Z,8.40
2018-02-24T23:32:13.197Z,6.12
2018-02-24T23:34:39.425Z,10.80
2018-02-24T23:37:05.706Z,7.03
2018-02-24T23:39:32.303Z,5.57
2018-02-24T23:41:59.386Z,6.80
2018-02-24T23:44:25.615Z,6.78
2018-02-24T23:46:51.843Z,4.75
2018-02-24T23:49:18.066Z,6.25
2018-02-24T23:51:44.677Z,7.00
2018-02-24T23:54:11.643Z,9.70
2018-02-24T23:56:37.899Z,7.40
2018-02-24T23:59:04.116Z,8.55
